Time;durP1;ratioP1;P1;durP2;ratioP2;P2;SDS_P1;SDS_P2;PMS_P1;PMS_P2;Temp;Humidity;BMP_temperature;BMP_pressure;BME280_temperature;BME280_humidity;BME280_pressure;Samples;Min_cycle;Max_cycle;Signal;HPM_P1;HPM_P2
2023/08/20 00:00:25;;;;;;;11.40;8.10;;;;;;;;;;4976396;28;20214;-73
2023/08/20 00:02:54;;;;;;;8.23;7.45;;;;;;;;;;4976434;28;20199;-72
2023/08/20 00:05:20;;;;;;;8.38;7.57;;;;;;;;;;4976329;28;20199;-72
2023/08/20 00:07:47;;;;;;;9.45;7.50;;;;;;;;;;4975578;28;20707;-73
2023/08/20 00:10:13;;;;;;;8.32;7.53;;;;;;;;;;4976211;28;20199;-72
2023/08/20 00:12:39;;;;;;;9.38;7.38;;;;;;;;;;4976047;28;20223;-72
2023/08/20 00:15:08;;;;;;;8.07;7.38;;;;;;;;;;4976267;28;20222;-73
2023/08/20 00:17:35;;;;;;;8.68;7.88;;;;;;;;;;4975819;28;20253;-72
2023/08/20 00:20:03;;;;;;;10.63;8.38;;;;;;;;;;4975894;28;20586;-72
2023/08/20 00:22:30;;;;;;;9.43;7.80;;;;;;;;;;4975837;28;20559;-72
2023/08/20 00:24:56;;;;;;;10.90;7.93;;;;;;;;;;4975751;28;20199;-73
2023/08/20 00:27:23;;;;;;;11.00;8.60;;;;;;;;;;4975760;28;20584;-73
2023/08/20 00:29:49;;;;;;;9.00;8.30;;;;;;;;;;4975655;28;20222;-72
2023/08/20 00:32:17;;;;;;;12.02;8.93;;;;;;;;;;4975993;28;20208;-73
2023/08/20 00:34:43;;;;;;;13.43;7.85;;;;;;;;;;4975554;28;20350;-72
2023/08/20 00:37:09;;;;;;;9.15;8.30;;;;;;;;;;4975703;28;20214;-73
2023/08/20 00:39:35;;;;;;;9.20;8.25;;;;;;;;;;4975152;28;20718;-72
2023/08/20 00:42:02;;;;;;;9.93;8.40;;;;;;;;;;4975818;28;20215;-72
2023/08/20 00:44:28;;;;;;;10.30;8.35;;;;;;;;;;4975642;28;20432;-72
2023/08/20 00:46:54;;;;;;;9.93;7.88;;;;;;;;;;4975720;28;20195;-73
2023/08/20 00:49:22;;;;;;;8.40;7.80;;;;;;;;;;4975228;28;20234;-73
2023/08/20 00:51:50;;;;;;;9.85;7.90;;;;;;;;;;4975195;28;20211;-73
2023/08/20 00:54:16;;;;;;;17.17;8.07;;;;;;;;;;4975575;28;20222;-73
2023/08/20 00:56:43;;;;;;;10.25;8.20;;;;;;;;;;4980199;28;20211;-73
2023/08/20 00:59:09;;;;;;;12.50;8.30;;;;;;;;;;4980238;28;20685;-73
2023/08/20 01:01:35;;;;;;;10.15;8.13;;;;;;;;;;4979312;28;20210;-73
2023/08/20 01:04:02;;;;;;;8.82;7.90;;;;;;;;;;4979555;28;20204;-72
2023/08/20 01:06:36;;;;;;;8.52;7.72;;;;;;;;;;4975588;28;20207;-72
2023/08/20 01:09:04;;;;;;;9.10;8.05;;;;;;;;;;4967794;28;20238;-73
2023/08/20 01:11:34;;;;;;;13.23;8.45;;;;;;;;;;4974958;28;20668;-72
2023/08/20 01:14:01;;;;;;;8.88;8.07;;;;;;;;;;4975136;28;20220;-73
2023/08/20 01:16:27;;;;;;;8.32;7.53;;;;;;;;;;4974966;28;20200;-73
2023/08/20 01:18:53;;;;;;;8.85;8.05;;;;;;;;;;4974405;28;20222;-73
2023/08/20 01:21:24;;;;;;;9.75;8.73;;;;;;;;;;4975123;28;20200;-73
2023/08/20 01:24:06;;;;;;;8.60;7.90;;;;;;;;;;4975122;28;20207;-72
2023/08/20 01:26:49;;;;;;;8.52;7.82;;;;;;;;;;4974757;28;20214;-72
2023/08/20 01:29:17;;;;;;;9.35;8.40;;;;;;;;;;4974414;28;20223;-72
2023/08/20 01:31:44;;;;;;;9.10;8.38;;;;;;;;;;4974593;28;20207;-73
2023/08/20 01:34:11;;;;;;;9.40;8.57;;;;;;;;;;4974680;28;20215;-73
2023/08/20 01:36:38;;;;;;;12.52;8.23;;;;;;;;;;4974560;28;20200;-73
2023/08/20 01:39:05;;;;;;;11.23;8.93;;;;;;;;;;4974251;28;20242;-73
2023/08/20 01:41:31;;;;;;;10.52;8.57;;;;;;;;;;4974514;28;20259;-73
2023/08/20 01:43:58;;;;;;;9.60;8.38;;;;;;;;;;4966560;28;20202;-73
2023/08/20 01:46:25;;;;;;;8.98;8.15;;;;;;;;;;4974404;28;20203;-73
2023/08/20 01:48:51;;;;;;;14.68;9.00;;;;;;;;;;4974329;28;20236;-72
2023/08/20 01:51:18;;;;;;;9.43;8.13;;;;;;;;;;4974556;28;20207;-72
2023/08/20 01:53:44;;;;;;;11.10;8.75;;;;;;;;;;4974105;28;20231;-72
2023/08/20 01:56:13;;;;;;;9.30;8.50;;;;;;;;;;4974235;28;20206;-72
2023/08/20 01:58:40;;;;;;;10.90;8.77;;;;;;;;;;4973733;28;20215;-73
2023/08/20 02:01:06;;;;;;;12.05;8.75;;;;;;;;;;4974281;28;20203;-72
2023/08/20 02:03:35;;;;;;;9.43;8.52;;;;;;;;;;4974180;28;20210;-72
2023/08/20 02:06:01;;;;;;;10.32;8.88;;;;;;;;;;4966431;28;20203;-72
2023/08/20 02:08:27;;;;;;;9.80;8.90;;;;;;;;;;4973510;28;20228;-72
2023/08/20 02:11:00;;;;;;;11.80;8.95;;;;;;;;;;4973864;28;20207;-73
2023/08/20 02:13:26;;;;;;;9.25;8.35;;;;;;;;;;4973814;28;20219;-73
2023/08/20 02:15:57;;;;;;;10.25;8.77;;;;;;;;;;4973970;28;20260;-73
2023/08/20 02:18:24;;;;;;;8.85;7.97;;;;;;;;;;4973550;28;20621;-73
2023/08/20 02:20:51;;;;;;;13.95;9.27;;;;;;;;;;4973739;28;20211;-73
2023/08/20 02:23:18;;;;;;;10.80;9.00;;;;;;;;;;4973690;28;20204;-73
2023/08/20 02:25:44;;;;;;;11.32;9.02;;;;;;;;;;4973567;28;20214;-73
2023/08/20 02:28:10;;;;;;;10.75;8.65;;;;;;;;;;4973220;28;20223;-73
2023/08/20 02:30:40;;;;;;;9.55;8.55;;;;;;;;;;4973449;28;20199;-73
2023/08/20 02:33:06;;;;;;;10.73;9.25;;;;;;;;;;4973578;28;20199;-73
2023/08/20 02:35:32;;;;;;;12.70;8.30;;;;;;;;;;4973559;28;20569;-73
2023/08/20 02:38:00;;;;;;;9.70;7.82;;;;;;;;;;4973057;28;20266;-73
2023/08/20 02:40:26;;;;;;;10.52;9.32;;;;;;;;;;4973263;28;20210;-73
2023/08/20 02:42:52;;;;;;;13.32;8.52;;;;;;;;;;4973328;28;20690;-73
2023/08/20 02:45:19;;;;;;;11.13;8.45;;;;;;;;;;4973656;28;20210;-73
2023/08/20 02:47:45;;;;;;;12.65;8.93;;;;;;;;;;4972844;28;20208;-73
2023/08/20 02:50:11;;;;;;;9.40;8.43;;;;;;;;;;4973310;28;20218;-73
2023/08/20 02:52:38;;;;;;;9.07;8.23;;;;;;;;;;4973222;28;20199;-73
2023/08/20 02:55:07;;;;;;;9.00;8.20;;;;;;;;;;4965646;28;20579;-73
2023/08/20 02:57:33;;;;;;;9.07;8.25;;;;;;;;;;4973067;28;20238;-73
2023/08/20 02:59:59;;;;;;;12.25;8.55;;;;;;;;;;4973025;28;20208;-73
2023/08/20 03:02:25;;;;;;;9.75;8.95;;;;;;;;;;4973093;28;20207;-73
2023/08/20 03:04:52;;;;;;;13.75;9.15;;;;;;;;;;4972924;28;20226;-73
2023/08/20 03:07:19;;;;;;;14.73;8.95;;;;;;;;;;4973009;28;20199;-73
2023/08/20 03:09:45;;;;;;;10.52;8.75;;;;;;;;;;4972383;28;20230;-73
2023/08/20 03:12:13;;;;;;;9.85;8.60;;;;;;;;;;4973136;28;20203;-73
2023/08/20 03:14:39;;;;;;;11.27;8.80;;;;;;;;;;4973027;28;20215;-73
2023/08/20 03:17:05;;;;;;;10.57;9.13;;;;;;;;;;4972782;28;20203;-73
2023/08/20 03:19:34;;;;;;;9.95;8.77;;;;;;;;;;4972452;28;20231;-73
2023/08/20 03:22:00;;;;;;;9.32;8.55;;;;;;;;;;4972059;28;20683;-73
2023/08/20 03:24:26;;;;;;;10.68;8.40;;;;;;;;;;4972915;28;20196;-73
2023/08/20 03:26:53;;;;;;;9.90;8.40;;;;;;;;;;4972795;28;20214;-73
2023/08/20 03:29:20;;;;;;;14.90;9.00;;;;;;;;;;4972459;28;20232;-73
2023/08/20 03:31:46;;;;;;;11.80;9.52;;;;;;;;;;4972605;28;20226;-73
2023/08/20 03:34:13;;;;;;;10.98;8.80;;;;;;;;;;4972740;28;20219;-73
2023/08/20 03:36:39;;;;;;;10.85;8.77;;;;;;;;;;4972748;28;20210;-73
2023/08/20 03:39:05;;;;;;;13.43;8.77;;;;;;;;;;4972583;28;20309;-73
2023/08/20 03:41:31;;;;;;;9.60;8.48;;;;;;;;;;4973054;28;20204;-73
2023/08/20 03:43:58;;;;;;;11.00;8.95;;;;;;;;;;4972824;28;20207;-73
2023/08/20 03:46:25;;;;;;;11.00;8.45;;;;;;;;;;4972780;28;20573;-73
2023/08/20 03:48:52;;;;;;;9.48;8.68;;;;;;;;;;4972193;28;20227;-73
2023/08/20 03:51:18;;;;;;;11.23;8.68;;;;;;;;;;4972816;28;20207;-73
2023/08/20 03:53:44;;;;;;;11.93;8.90;;;;;;;;;;4973045;28;20608;-73
2023/08/20 03:56:10;;;;;;;9.30;8.45;;;;;;;;;;4965116;28;20207;-73
2023/08/20 03:58:37;;;;;;;11.52;8.93;;;;;;;;;;4972464;28;20220;-73
2023/08/20 04:01:04;;;;;;;10.93;8.35;;;;;;;;;;4972733;28;20207;-73
2023/08/20 04:03:31;;;;;;;10.88;8.63;;;;;;;;;;4972379;28;20575;-73
2023/08/20 04:05:58;;;;;;;9.82;8.85;;;;;;;;;;4972430;28;20215;-73
2023/08/20 04:08:24;;;;;;;11.32;9.15;;;;;;;;;;4972091;28;20227;-73
2023/08/20 04:10:50;;;;;;;9.73;8.75;;;;;;;;;;4972288;28;20215;-73
2023/08/20 04:13:17;;;;;;;9.52;8.60;;;;;;;;;;4972491;28;20199;-73
2023/08/20 04:15:43;;;;;;;9.88;8.88;;;;;;;;;;4972270;28;20314;-66
2023/08/20 04:18:09;;;;;;;10.45;8.70;;;;;;;;;;4971681;28;20224;-66
2023/08/20 04:20:37;;;;;;;9.73;8.75;;;;;;;;;;4972208;28;20278;-66
2023/08/20 04:23:03;;;;;;;10.45;9.45;;;;;;;;;;4972258;28;20212;-66
2023/08/20 04:25:29;;;;;;;10.18;9.27;;;;;;;;;;4972291;28;20219;-66
2023/08/20 04:27:56;;;;;;;10.32;9.43;;;;;;;;;;4971739;28;20228;-66
2023/08/20 04:30:22;;;;;;;10.27;9.27;;;;;;;;;;4972043;28;20699;-66
2023/08/20 04:32:48;;;;;;;10.38;8.65;;;;;;;;;;4973980;28;20215;-66
2023/08/20 04:35:15;;;;;;;9.15;8.32;;;;;;;;;;4975760;28;20247;-66
2023/08/20 04:37:42;;;;;;;9.43;8.57;;;;;;;;;;4975272;28;20551;-66
2023/08/20 04:40:09;;;;;;;9.85;8.32;;;;;;;;;;4975815;28;20208;-66
2023/08/20 04:42:35;;;;;;;10.55;8.40;;;;;;;;;;4975666;28;20204;-66
2023/08/20 04:45:01;;;;;;;9.65;8.75;;;;;;;;;;4975565;28;20211;-66
2023/08/20 04:47:28;;;;;;;9.93;9.10;;;;;;;;;;4975128;28;20196;-66
2023/08/20 04:49:54;;;;;;;12.10;9.00;;;;;;;;;;4975305;28;20207;-66
2023/08/20 04:52:21;;;;;;;10.15;9.07;;;;;;;;;;4975665;28;20211;-66
2023/08/20 04:54:48;;;;;;;9.65;8.70;;;;;;;;;;4975427;28;20274;-66
2023/08/20 04:57:16;;;;;;;9.50;8.65;;;;;;;;;;4975230;28;20200;-66
2023/08/20 04:59:44;;;;;;;10.73;9.18;;;;;;;;;;4974909;28;20250;-66
2023/08/20 05:02:11;;;;;;;12.15;9.07;;;;;;;;;;4974979;28;20234;-66
2023/08/20 05:04:37;;;;;;;11.77;10.02;;;;;;;;;;4975354;28;20192;-66
2023/08/20 05:07:04;;;;;;;12.98;9.88;;;;;;;;;;4975005;28;20204;-66
2023/08/20 05:09:30;;;;;;;11.57;8.85;;;;;;;;;;4974577;28;20224;-66
2023/08/20 05:11:58;;;;;;;12.38;9.40;;;;;;;;;;4975006;28;20215;-66
2023/08/20 05:14:24;;;;;;;13.52;9.07;;;;;;;;;;4974865;28;20774;-66
2023/08/20 05:16:50;;;;;;;9.90;8.93;;;;;;;;;;4974971;28;20218;-66
2023/08/20 05:19:16;;;;;;;10.68;9.65;;;;;;;;;;4974414;28;20610;-66
2023/08/20 05:21:43;;;;;;;13.00;9.40;;;;;;;;;;4975067;28;20211;-66
2023/08/20 05:24:09;;;;;;;11.73;9.43;;;;;;;;;;4974685;28;20212;-66
2023/08/20 05:26:36;;;;;;;12.48;9.32;;;;;;;;;;4974873;28;20210;-66
2023/08/20 05:29:03;;;;;;;10.40;9.40;;;;;;;;;;4974177;28;20223;-66
2023/08/20 05:31:30;;;;;;;10.48;9.48;;;;;;;;;;4974885;28;20208;-66
2023/08/20 05:33:56;;;;;;;10.35;9.07;;;;;;;;;;4974700;28;20214;-66
2023/08/20 05:36:23;;;;;;;10.38;9.40;;;;;;;;;;4974524;28;20238;-66
2023/08/20 05:38:50;;;;;;;9.15;8.45;;;;;;;;;;4974659;28;20236;-66
2023/08/20 05:41:16;;;;;;;10.43;9.45;;;;;;;;;;4974435;28;20211;-66
2023/08/20 05:43:42;;;;;;;12.95;9.80;;;;;;;;;;4973885;28;20672;-66
2023/08/20 05:46:10;;;;;;;11.77;10.30;;;;;;;;;;4974678;28;20587;-66
2023/08/20 05:48:36;;;;;;;10.90;9.60;;;;;;;;;;4974153;28;20227;-66
2023/08/20 05:51:02;;;;;;;10.68;9.45;;;;;;;;;;4974153;28;20208;-66
2023/08/20 05:53:29;;;;;;;12.93;9.68;;;;;;;;;;4974421;28;20199;-66
2023/08/20 05:55:55;;;;;;;10.90;9.93;;;;;;;;;;4974221;28;20228;-66
2023/08/20 05:58:21;;;;;;;11.90;9.93;;;;;;;;;;4965792;28;20600;-66
2023/08/20 06:00:48;;;;;;;18.05;10.75;;;;;;;;;;4974259;28;20230;-66
2023/08/20 06:03:15;;;;;;;11.35;10.15;;;;;;;;;;4974134;28;20412;-66
2023/08/20 06:05:42;;;;;;;11.70;10.43;;;;;;;;;;4974215;28;20196;-66
2023/08/20 06:08:08;;;;;;;12.35;10.02;;;;;;;;;;4973510;28;20223;-66
2023/08/20 06:10:34;;;;;;;11.70;10.27;;;;;;;;;;4974020;28;20203;-66
2023/08/20 06:13:00;;;;;;;10.75;9.38;;;;;;;;;;4973984;28;20214;-66
2023/08/20 06:15:27;;;;;;;12.50;9.70;;;;;;;;;;4973952;28;20223;-66
2023/08/20 06:17:53;;;;;;;14.93;9.52;;;;;;;;;;4973439;28;20569;-66
2023/08/20 06:20:21;;;;;;;14.52;9.93;;;;;;;;;;4973881;28;20203;-66
2023/08/20 06:22:47;;;;;;;14.25;9.55;;;;;;;;;;4973784;28;20204;-66
2023/08/20 06:25:13;;;;;;;14.85;10.13;;;;;;;;;;4973479;28;20196;-66
2023/08/20 06:27:39;;;;;;;14.18;9.90;;;;;;;;;;4973482;28;20574;-66
2023/08/20 06:30:06;;;;;;;13.35;9.23;;;;;;;;;;4973733;28;20200;-66
2023/08/20 06:32:33;;;;;;;10.30;9.40;;;;;;;;;;4973741;28;20226;-66
2023/08/20 06:34:59;;;;;;;10.88;9.57;;;;;;;;;;4973437;28;20579;-66
2023/08/20 06:37:26;;;;;;;14.60;10.55;;;;;;;;;;4965568;28;20207;-66
2023/08/20 06:39:53;;;;;;;10.90;9.73;;;;;;;;;;4973189;28;20207;-66
2023/08/20 06:42:19;;;;;;;11.32;10.23;;;;;;;;;;4973183;28;20203;-65
2023/08/20 06:44:45;;;;;;;11.48;9.90;;;;;;;;;;4973684;28;20207;-65
2023/08/20 06:47:11;;;;;;;11.68;10.55;;;;;;;;;;4973491;28;20218;-65
2023/08/20 06:49:38;;;;;;;13.43;10.43;;;;;;;;;;4973192;28;20589;-66
2023/08/20 06:52:04;;;;;;;12.00;10.23;;;;;;;;;;4973255;28;20199;-66
2023/08/20 06:54:32;;;;;;;11.65;10.57;;;;;;;;;;4973259;28;20207;-65
2023/08/20 06:56:58;;;;;;;12.07;10.35;;;;;;;;;;4972742;28;20210;-65
2023/08/20 06:59:24;;;;;;;11.32;10.13;;;;;;;;;;4972805;28;20746;-65
2023/08/20 07:01:51;;;;;;;10.52;9.55;;;;;;;;;;4973316;28;20199;-65
2023/08/20 07:04:17;;;;;;;11.95;10.68;;;;;;;;;;4973338;28;20203;-65
2023/08/20 07:06:43;;;;;;;10.35;9.35;;;;;;;;;;4973222;28;20251;-65
2023/08/20 07:09:10;;;;;;;11.88;10.48;;;;;;;;;;4972443;28;20227;-65
2023/08/20 07:11:37;;;;;;;12.65;10.45;;;;;;;;;;4973288;28;20277;-65
2023/08/20 07:14:04;;;;;;;11.05;9.82;;;;;;;;;;4973176;28;20199;-65
2023/08/20 07:16:30;;;;;;;13.80;9.38;;;;;;;;;;4973081;28;20599;-65
2023/08/20 07:18:56;;;;;;;11.93;10.63;;;;;;;;;;4972816;28;20219;-65
2023/08/20 07:21:22;;;;;;;13.98;11.20;;;;;;;;;;4972903;28;20199;-65
2023/08/20 07:23:49;;;;;;;10.93;9.90;;;;;;;;;;4972804;28;20212;-66
2023/08/20 07:26:15;;;;;;;12.48;10.57;;;;;;;;;;4972764;28;20206;-66
2023/08/20 07:28:58;;;;;;;14.85;10.07;;;;;;;;;;4972693;28;20223;-66
2023/08/20 07:31:24;;;;;;;13.25;10.27;;;;;;;;;;4972865;28;20229;-66
2023/08/20 07:33:51;;;;;;;10.52;9.45;;;;;;;;;;4972878;28;20210;-71
2023/08/20 07:36:18;;;;;;;13.02;10.57;;;;;;;;;;4972784;28;20222;-66
2023/08/20 07:38:44;;;;;;;14.73;10.40;;;;;;;;;;4972615;28;20227;-67
2023/08/20 07:41:11;;;;;;;13.98;10.82;;;;;;;;;;4972628;28;20616;-67
2023/08/20 07:43:38;;;;;;;13.93;10.88;;;;;;;;;;4972769;28;20199;-66
2023/08/20 07:46:06;;;;;;;12.63;10.40;;;;;;;;;;4972855;28;20206;-66
2023/08/20 07:48:33;;;;;;;11.40;10.30;;;;;;;;;;4964632;28;20254;-66
2023/08/20 07:50:59;;;;;;;14.05;10.80;;;;;;;;;;4972698;28;20210;-66
2023/08/20 07:53:25;;;;;;;12.57;9.15;;;;;;;;;;4972493;28;20210;-66
2023/08/20 07:55:51;;;;;;;11.93;9.00;;;;;;;;;;4972688;28;20234;-67
2023/08/20 07:58:18;;;;;;;10.40;9.32;;;;;;;;;;4972100;28;20219;-66
2023/08/20 08:00:44;;;;;;;10.70;9.63;;;;;;;;;;4972615;28;20213;-67
2023/08/20 08:03:14;;;;;;;11.18;9.90;;;;;;;;;;4972229;28;20199;-67
2023/08/20 08:05:40;;;;;;;15.90;10.85;;;;;;;;;;4972476;28;20195;-66
2023/08/20 08:08:07;;;;;;;14.35;11.18;;;;;;;;;;4974795;28;20226;-66
2023/08/20 08:10:33;;;;;;;15.15;11.63;;;;;;;;;;4975645;28;20442;-75
2023/08/20 08:13:00;;;;;;;12.25;10.43;;;;;;;;;;4976230;28;20207;-74
2023/08/20 08:15:26;;;;;;;14.30;10.02;;;;;;;;;;4975889;28;20306;-74
2023/08/20 08:17:52;;;;;;;15.70;9.88;;;;;;;;;;4975637;28;20230;-74
2023/08/20 08:20:20;;;;;;;17.63;9.85;;;;;;;;;;4976219;28;20203;-74
2023/08/20 08:22:46;;;;;;;14.70;9.93;;;;;;;;;;4976129;28;20211;-74
2023/08/20 08:25:12;;;;;;;13.55;9.50;;;;;;;;;;4975949;28;20207;-74
2023/08/20 08:27:39;;;;;;;11.00;9.50;;;;;;;;;;4975528;28;20200;-74
2023/08/20 08:30:05;;;;;;;12.35;9.63;;;;;;;;;;4975766;28;20215;-74
2023/08/20 08:32:32;;;;;;;13.55;9.65;;;;;;;;;;4975582;28;20199;-74
2023/08/20 08:34:58;;;;;;;15.02;10.38;;;;;;;;;;4975826;28;20219;-74
2023/08/20 08:37:26;;;;;;;15.38;9.43;;;;;;;;;;4975648;28;20200;-74
2023/08/20 08:39:52;;;;;;;11.80;10.10;;;;;;;;;;4975521;28;20222;-74
2023/08/20 08:42:21;;;;;;;12.90;10.13;;;;;;;;;;4974798;28;20207;-74
2023/08/20 08:44:47;;;;;;;18.85;10.18;;;;;;;;;;4975368;28;20214;-74
2023/08/20 08:47:13;;;;;;;11.75;9.80;;;;;;;;;;4975430;28;20842;-74
2023/08/20 08:49:40;;;;;;;10.48;9.48;;;;;;;;;;4975405;28;20234;-74
2023/08/20 08:52:07;;;;;;;11.27;10.13;;;;;;;;;;4975499;28;20209;-74
2023/08/20 08:54:34;;;;;;;10.48;9.35;;;;;;;;;;4975335;28;20211;-74
2023/08/20 08:57:01;;;;;;;14.90;10.27;;;;;;;;;;4975262;28;20730;-75
2023/08/20 08:59:27;;;;;;;15.32;9.60;;;;;;;;;;4974773;28;20231;-75
2023/08/20 09:01:54;;;;;;;11.80;9.48;;;;;;;;;;4975782;28;20199;-75
2023/08/20 09:04:20;;;;;;;10.00;9.10;;;;;;;;;;4975356;28;20203;-75
2023/08/20 09:06:47;;;;;;;9.93;8.77;;;;;;;;;;4975322;28;20207;-75
2023/08/20 09:09:13;;;;;;;11.48;9.45;;;;;;;;;;4974689;28;20298;-74
2023/08/20 09:11:41;;;;;;;9.38;8.57;;;;;;;;;;4974934;28;20199;-74
2023/08/20 09:14:07;;;;;;;10.98;9.30;;;;;;;;;;4974880;28;20699;-74
2023/08/20 09:16:33;;;;;;;13.00;9.90;;;;;;;;;;4974948;28;20219;-75
2023/08/20 09:19:00;;;;;;;13.93;9.40;;;;;;;;;;4973835;28;20235;-75
2023/08/20 09:21:29;;;;;;;13.27;9.48;;;;;;;;;;4974842;28;20215;-74
2023/08/20 09:23:55;;;;;;;9.68;8.77;;;;;;;;;;4974867;28;20727;-74
2023/08/20 09:26:22;;;;;;;10.57;8.82;;;;;;;;;;4974810;28;20199;-75
2023/08/20 09:28:49;;;;;;;11.57;8.95;;;;;;;;;;4974313;28;20227;-75
2023/08/20 09:31:16;;;;;;;8.80;8.00;;;;;;;;;;4974941;28;20214;-75
2023/08/20 09:33:51;;;;;;;13.25;9.15;;;;;;;;;;4967048;28;20195;-75
2023/08/20 09:36:18;;;;;;;11.48;8.50;;;;;;;;;;4974553;28;20573;-75
2023/08/20 09:38:44;;;;;;;11.95;9.57;;;;;;;;;;4974350;28;20277;-75
2023/08/20 09:41:12;;;;;;;9.52;8.57;;;;;;;;;;4974510;28;20210;-75
2023/08/20 09:43:39;;;;;;;9.30;7.93;;;;;;;;;;4974422;28;20690;-75
2023/08/20 09:46:07;;;;;;;15.30;9.35;;;;;;;;;;4974589;28;20254;-74
2023/08/20 09:48:35;;;;;;;11.27;8.52;;;;;;;;;;4974128;28;20231;-75
2023/08/20 09:51:04;;;;;;;13.23;9.07;;;;;;;;;;4974495;28;20258;-75
2023/08/20 09:53:34;;;;;;;10.43;8.90;;;;;;;;;;4974226;28;20286;-75
2023/08/20 09:56:04;;;;;;;14.15;8.98;;;;;;;;;;4974714;28;20230;-75
2023/08/20 09:58:31;;;;;;;9.65;8.32;;;;;;;;;;4974655;28;20230;-75
2023/08/20 10:00:57;;;;;;;9.95;8.98;;;;;;;;;;4974872;28;20207;-75
2023/08/20 10:03:25;;;;;;;11.73;8.80;;;;;;;;;;4974848;28;20203;-75
2023/08/20 10:05:52;;;;;;;10.52;8.40;;;;;;;;;;4974449;28;20210;-75
2023/08/20 10:08:18;;;;;;;8.82;7.93;;;;;;;;;;4973829;28;20238;-75
2023/08/20 10:10:45;;;;;;;9.88;7.43;;;;;;;;;;4974467;28;20207;-75
2023/08/20 10:13:13;;;;;;;9.30;7.45;;;;;;;;;;4974479;28;20214;-75
2023/08/20 10:15:40;;;;;;;8.10;6.90;;;;;;;;;;4974321;28;20294;-74
2023/08/20 10:18:08;;;;;;;13.85;7.60;;;;;;;;;;4974016;28;20223;-74
2023/08/20 10:20:36;;;;;;;9.50;7.35;;;;;;;;;;4974058;28;20211;-74
2023/08/20 10:23:03;;;;;;;14.05;7.60;;;;;;;;;;4973983;28;20210;-76
2023/08/20 10:25:30;;;;;;;7.53;6.75;;;;;;;;;;4973869;28;20204;-75
2023/08/20 10:28:11;;;;;;;9.23;7.03;;;;;;;;;;4973751;28;20216;-75
2023/08/20 10:30:38;;;;;;;7.22;6.47;;;;;;;;;;4973622;28;20215;-75
2023/08/20 10:33:04;;;;;;;10.75;7.10;;;;;;;;;;4973726;28;20583;-75
2023/08/20 10:35:47;;;;;;;21.38;7.97;;;;;;;;;;4973582;28;20222;-75
2023/08/20 10:38:16;;;;;;;8.90;6.63;;;;;;;;;;4973542;28;20576;-75
2023/08/20 10:40:55;;;;;;;7.22;6.55;;;;;;;;;;4973700;28;20200;-74
2023/08/20 10:43:27;;;;;;;8.05;6.47;;;;;;;;;;4973654;28;20205;-75
2023/08/20 10:46:03;;;;;;;18.45;7.40;;;;;;;;;;4966333;28;20199;-75
2023/08/20 10:48:30;;;;;;;6.38;5.60;;;;;;;;;;4973140;28;20226;-76
2023/08/20 10:50:56;;;;;;;8.32;6.75;;;;;;;;;;4973487;28;20200;-75
2023/08/20 10:53:24;;;;;;;7.10;6.50;;;;;;;;;;4973842;28;20206;-75
2023/08/20 10:55:51;;;;;;;7.00;6.30;;;;;;;;;;4965498;28;20199;-75
2023/08/20 10:58:18;;;;;;;6.40;5.80;;;;;;;;;;4973056;28;20230;-76
2023/08/20 11:00:45;;;;;;;12.82;5.93;;;;;;;;;;4973506;28;20207;-75
2023/08/20 11:03:11;;;;;;;8.70;5.75;;;;;;;;;;4973472;28;20195;-75
2023/08/20 11:05:38;;;;;;;7.47;5.20;;;;;;;;;;4973039;28;20203;-75
2023/08/20 11:08:07;;;;;;;9.45;5.68;;;;;;;;;;4972869;28;20215;-75
2023/08/20 11:10:36;;;;;;;10.25;5.72;;;;;;;;;;4973045;28;20200;-75
2023/08/20 11:13:03;;;;;;;7.25;5.30;;;;;;;;;;4973304;28;20203;-75
2023/08/20 11:15:29;;;;;;;5.57;5.00;;;;;;;;;;4973159;28;20234;-75
2023/08/20 11:17:55;;;;;;;5.88;5.38;;;;;;;;;;4972666;28;20230;-75
2023/08/20 11:20:22;;;;;;;8.32;5.57;;;;;;;;;;4973139;28;20199;-75
2023/08/20 11:22:48;;;;;;;6.22;5.57;;;;;;;;;;4972892;28;20678;-75
2023/08/20 11:25:14;;;;;;;6.55;5.50;;;;;;;;;;4972886;28;20203;-75
2023/08/20 11:27:42;;;;;;;7.40;5.30;;;;;;;;;;4972943;28;20199;-75
2023/08/20 11:30:10;;;;;;;9.45;5.18;;;;;;;;;;4974037;28;20200;-75
2023/08/20 11:32:36;;;;;;;9.80;5.35;;;;;;;;;;4973217;28;20663;-75
2023/08/20 11:35:03;;;;;;;8.07;6.03;;;;;;;;;;4973147;28;20207;-74
2023/08/20 11:37:29;;;;;;;9.93;5.40;;;;;;;;;;4972556;28;20219;-74
2023/08/20 11:39:55;;;;;;;8.82;5.70;;;;;;;;;;4972550;28;20226;-75
2023/08/20 11:42:23;;;;;;;9.20;6.10;;;;;;;;;;4972284;28;20210;-75
2023/08/20 11:44:51;;;;;;;6.50;5.80;;;;;;;;;;4972809;28;20207;-74
2023/08/20 11:47:17;;;;;;;10.15;5.95;;;;;;;;;;4972781;28;20195;-75
2023/08/20 11:49:44;;;;;;;7.85;5.85;;;;;;;;;;4972337;28;20238;-75
2023/08/20 11:52:10;;;;;;;6.32;5.75;;;;;;;;;;4972687;28;20199;-75
2023/08/20 11:54:38;;;;;;;7.95;5.90;;;;;;;;;;4972416;28;20203;-75
2023/08/20 11:57:05;;;;;;;13.80;5.32;;;;;;;;;;4972760;28;20239;-75
2023/08/20 11:59:31;;;;;;;7.60;5.20;;;;;;;;;;4972223;28;20220;-75
2023/08/20 12:02:00;;;;;;;9.15;5.55;;;;;;;;;;4972684;28;20211;-75
2023/08/20 12:04:27;;;;;;;8.02;5.28;;;;;;;;;;4972620;28;20214;-75
2023/08/20 12:07:02;;;;;;;7.45;5.05;;;;;;;;;;4972455;28;20226;-75
2023/08/20 12:09:28;;;;;;;10.35;6.28;;;;;;;;;;4972064;28;20294;-75
2023/08/20 12:11:55;;;;;;;7.55;6.38;;;;;;;;;;4972391;28;20672;-75
2023/08/20 12:14:22;;;;;;;8.35;5.97;;;;;;;;;;4972534;28;20679;-74
2023/08/20 12:16:50;;;;;;;9.35;5.65;;;;;;;;;;4972311;28;20219;-74
2023/08/20 12:19:18;;;;;;;8.82;5.85;;;;;;;;;;4972143;28;20302;-75
2023/08/20 12:21:44;;;;;;;8.38;5.70;;;;;;;;;;4972501;28;20212;-75
2023/08/20 12:24:11;;;;;;;12.30;5.78;;;;;;;;;;4972402;28;20703;-75
2023/08/20 12:26:38;;;;;;;10.25;5.97;;;;;;;;;;4972408;28;20195;-75
2023/08/20 12:29:04;;;;;;;11.52;5.93;;;;;;;;;;4972101;28;20223;-75
2023/08/20 12:31:30;;;;;;;7.93;6.03;;;;;;;;;;4972379;28;20200;-74
2023/08/20 12:33:57;;;;;;;6.72;5.68;;;;;;;;;;4972122;28;20684;-74
2023/08/20 12:36:24;;;;;;;6.20;5.43;;;;;;;;;;4972428;28;20204;-74
2023/08/20 12:38:51;;;;;;;6.95;5.57;;;;;;;;;;4971858;28;20234;-74
2023/08/20 12:41:17;;;;;;;9.05;5.55;;;;;;;;;;4972057;28;20203;-75
2023/08/20 12:43:43;;;;;;;11.95;5.65;;;;;;;;;;4971959;28;20211;-75
2023/08/20 12:46:10;;;;;;;8.23;5.43;;;;;;;;;;4972124;28;20210;-75
2023/08/20 12:48:36;;;;;;;12.90;5.32;;;;;;;;;;4971432;28;20211;-75
2023/08/20 12:51:03;;;;;;;9.90;5.78;;;;;;;;;;4972056;28;20211;-75
2023/08/20 12:53:30;;;;;;;8.93;5.22;;;;;;;;;;4972400;28;20208;-75
2023/08/20 12:55:56;;;;;;;5.20;4.90;;;;;;;;;;4975421;28;20668;-75
2023/08/20 12:58:23;;;;;;;9.23;5.90;;;;;;;;;;4974899;28;20230;-75
2023/08/20 13:00:50;;;;;;;10.30;5.68;;;;;;;;;;4975179;28;20227;-75
2023/08/20 13:03:17;;;;;;;8.07;5.18;;;;;;;;;;4975201;28;20199;-75
2023/08/20 13:05:43;;;;;;;7.28;5.63;;;;;;;;;;4975042;28;20549;-76
2023/08/20 13:08:11;;;;;;;6.18;4.90;;;;;;;;;;4974922;28;20219;-76
2023/08/20 13:10:39;;;;;;;5.90;5.10;;;;;;;;;;4974980;28;20229;-75
2023/08/20 13:13:09;;;;;;;6.85;5.15;;;;;;;;;;4975311;28;20204;-75
2023/08/20 13:15:35;;;;;;;10.02;4.82;;;;;;;;;;4975028;28;20207;-75
2023/08/20 13:18:02;;;;;;;11.80;5.40;;;;;;;;;;4974386;28;20226;-75
2023/08/20 13:20:28;;;;;;;8.35;4.97;;;;;;;;;;4974946;28;20270;-75
2023/08/20 13:22:54;;;;;;;11.35;5.20;;;;;;;;;;4974936;28;20204;-75
2023/08/20 13:25:21;;;;;;;8.43;5.10;;;;;;;;;;4975025;28;20203;-75
2023/08/20 13:27:49;;;;;;;7.22;5.00;;;;;;;;;;4974481;28;20636;-75
2023/08/20 13:30:15;;;;;;;11.23;5.03;;;;;;;;;;4975170;28;20226;-75
2023/08/20 13:32:42;;;;;;;5.45;4.80;;;;;;;;;;4974683;28;20566;-75
2023/08/20 13:35:08;;;;;;;6.75;4.78;;;;;;;;;;4974714;28;20199;-75
2023/08/20 13:37:34;;;;;;;5.03;4.65;;;;;;;;;;4974485;28;20211;-75
2023/08/20 13:40:01;;;;;;;9.18;5.05;;;;;;;;;;4974444;28;20290;-76
2023/08/20 13:42:27;;;;;;;11.05;5.10;;;;;;;;;;4974591;28;20202;-75
2023/08/20 13:44:55;;;;;;;9.38;4.47;;;;;;;;;;4974320;28;20210;-75
2023/08/20 13:47:21;;;;;;;7.15;4.50;;;;;;;;;;4974716;28;20191;-75
2023/08/20 13:49:47;;;;;;;7.80;5.05;;;;;;;;;;4973890;28;20245;-75
2023/08/20 13:52:14;;;;;;;5.00;4.60;;;;;;;;;;4974502;28;20195;-75
2023/08/20 13:54:40;;;;;;;10.52;4.90;;;;;;;;;;4974449;28;20200;-75
2023/08/20 13:57:06;;;;;;;7.82;4.63;;;;;;;;;;4974083;28;20602;-75
2023/08/20 13:59:32;;;;;;;6.15;4.25;;;;;;;;;;4973922;28;20226;-75
2023/08/20 14:02:00;;;;;;;5.20;4.70;;;;;;;;;;4974357;28;20211;-75
2023/08/20 14:04:26;;;;;;;6.68;4.65;;;;;;;;;;4974154;28;20227;-75
2023/08/20 14:06:53;;;;;;;5.07;4.45;;;;;;;;;;4973974;28;20664;-76
2023/08/20 14:09:19;;;;;;;5.63;4.57;;;;;;;;;;4973675;28;20219;-76
2023/08/20 14:11:45;;;;;;;7.18;4.93;;;;;;;;;;4973919;28;20671;-76
2023/08/20 14:14:12;;;;;;;7.65;4.57;;;;;;;;;;4973798;28;20254;-75
2023/08/20 14:16:38;;;;;;;6.45;4.15;;;;;;;;;;4974186;28;20536;-75
2023/08/20 14:19:05;;;;;;;10.63;4.28;;;;;;;;;;4973223;28;20616;-75
2023/08/20 14:21:32;;;;;;;10.88;4.70;;;;;;;;;;4973819;28;20210;-75
2023/08/20 14:23:58;;;;;;;7.30;4.32;;;;;;;;;;4973814;28;20207;-75
2023/08/20 14:26:25;;;;;;;9.75;4.25;;;;;;;;;;4973703;28;20199;-75
2023/08/20 14:28:51;;;;;;;7.18;4.35;;;;;;;;;;4973395;28;20223;-75
2023/08/20 14:31:18;;;;;;;7.40;4.47;;;;;;;;;;4973845;28;20214;-75